createdAt,value
2019-01-15T00:02:05.863Z,3.40
2019-01-15T00:07:27.821Z,3.30
2019-01-15T00:12:48.298Z,3.73
2019-01-15T00:18:09.270Z,2.87
2019-01-15T00:23:29.659Z,3.50
2019-01-15T00:28:50.968Z,3.87
2019-01-15T00:34:11.801Z,3.97
2019-01-15T00:39:32.655Z,3.10
2019-01-15T00:44:53.438Z,3.07
2019-01-15T00:50:14.768Z,3.23
2019-01-15T00:55:35.301Z,3.43
2019-01-15T01:00:59.292Z,3.83
2019-01-15T01:06:19.819Z,3.60
2019-01-15T01:11:40.054Z,3.13
2019-01-15T01:17:01.005Z,3.10
2019-01-15T01:22:21.399Z,3.17
2019-01-15T01:27:23.316Z,4.70
2019-01-15T01:32:25.484Z,3.80
2019-01-15T01:37:27.439Z,3.43
2019-01-15T01:42:29.774Z,4.03
2019-01-15T01:47:31.801Z,3.63
2019-01-15T01:52:33.838Z,3.83
2019-01-15T01:57:35.835Z,2.70
2019-01-15T02:02:38.007Z,3.70
2019-01-15T02:07:40.161Z,3.33
2019-01-15T02:12:42.165Z,2.80
2019-01-15T02:17:44.413Z,3.40
2019-01-15T02:22:46.623Z,3.67
2019-01-15T02:27:51.079Z,3.30
2019-01-15T02:32:54.289Z,3.77
2019-01-15T02:37:56.438Z,3.83
2019-01-15T02:42:58.538Z,4.27
2019-01-15T02:48:00.608Z,3.60
2019-01-15T02:53:02.633Z,3.00
2019-01-15T02:58:04.652Z,3.43
2019-01-15T03:03:06.677Z,3.40
2019-01-15T03:08:08.604Z,3.70
2019-01-15T03:13:10.614Z,3.97
2019-01-15T03:18:12.638Z,2.97
2019-01-15T03:23:14.643Z,3.60
2019-01-15T03:28:16.558Z,3.57
2019-01-15T03:33:19.591Z,2.77
2019-01-15T03:38:21.640Z,4.00
2019-01-15T03:43:23.566Z,3.37
2019-01-15T03:48:25.829Z,3.50
2019-01-15T03:53:27.850Z,3.60
2019-01-15T03:58:29.932Z,2.97
2019-01-15T04:03:32.043Z,3.70
2019-01-15T04:08:35.162Z,5.40
2019-01-15T04:13:37.436Z,3.60
2019-01-15T04:18:39.426Z,4.33
2019-01-15T04:23:41.333Z,4.30
2019-01-15T04:28:43.318Z,4.83
2019-01-15T04:33:45.218Z,3.97
2019-01-15T04:38:47.258Z,3.73
2019-01-15T04:43:49.331Z,2.77
2019-01-15T04:48:51.402Z,4.03
2019-01-15T04:53:53.359Z,4.00
2019-01-15T04:58:55.341Z,4.33
2019-01-15T05:03:57.440Z,3.80
2019-01-15T05:08:59.458Z,3.63
2019-01-15T05:14:02.133Z,3.50
2019-01-15T05:19:04.182Z,3.67
2019-01-15T05:24:06.370Z,3.97
2019-01-15T05:29:10.844Z,4.47
2019-01-15T05:34:13.083Z,4.27
2019-01-15T05:39:15.273Z,4.37
2019-01-15T05:44:17.757Z,3.93
2019-01-15T05:49:20.203Z,3.47
2019-01-15T05:54:22.505Z,3.57
2019-01-15T05:59:25.047Z,4.73
2019-01-15T06:04:28.314Z,3.47
2019-01-15T06:09:31.869Z,3.77
2019-01-15T06:14:34.323Z,3.87
2019-01-15T06:19:38.568Z,3.93
2019-01-15T06:24:40.726Z,4.93
2019-01-15T06:29:44.914Z,3.50
2019-01-15T06:34:47.155Z,4.47
2019-01-15T06:39:49.141Z,4.13
2019-01-15T06:44:51.090Z,4.30
2019-01-15T06:49:53.607Z,4.17
2019-01-15T06:54:55.855Z,3.83
2019-01-15T06:59:57.839Z,4.37
2019-01-15T07:05:00.026Z,4.07
2019-01-15T07:10:02.979Z,3.77
2019-01-15T07:15:05.436Z,3.10
2019-01-15T07:20:08.981Z,3.50
2019-01-15T07:25:13.135Z,3.57
2019-01-15T07:30:20.932Z,3.43
2019-01-15T07:35:23.120Z,3.27
2019-01-15T07:40:25.140Z,3.00
2019-01-15T07:45:27.340Z,3.27
2019-01-15T07:50:29.686Z,2.23
2019-01-15T07:55:31.918Z,3.03
2019-01-15T08:00:34.910Z,3.20
2019-01-15T08:05:36.915Z,2.50
2019-01-15T08:10:38.849Z,2.90
2019-01-15T08:15:40.833Z,3.00
2019-01-15T08:20:43.840Z,2.63
2019-01-15T08:25:45.855Z,2.43
2019-01-15T08:30:48.008Z,2.97
2019-01-15T08:35:49.946Z,2.90
2019-01-15T08:40:51.860Z,2.97
2019-01-15T08:45:55.370Z,2.43
2019-01-15T08:50:57.709Z,3.23
2019-01-15T08:56:00.229Z,3.07
2019-01-15T09:01:02.336Z,2.80
2019-01-15T09:06:04.243Z,3.50
2019-01-15T09:11:06.551Z,3.37
2019-01-15T09:16:08.720Z,3.07
2019-01-15T09:21:10.946Z,3.40
2019-01-15T09:26:12.877Z,4.00
2019-01-15T09:31:14.865Z,3.20
2019-01-15T09:36:16.785Z,3.53
2019-01-15T09:41:18.709Z,3.40
2019-01-15T09:46:20.748Z,3.57
2019-01-15T09:51:22.805Z,3.00
2019-01-15T09:56:24.735Z,3.60
2019-01-15T10:01:26.735Z,3.73
2019-01-15T10:06:28.759Z,3.93
2019-01-15T10:11:30.725Z,4.30
2019-01-15T10:16:32.767Z,4.50
2019-01-15T10:21:34.716Z,4.60
2019-01-15T10:26:36.746Z,4.33
2019-01-15T10:32:32.900Z,5.03
2019-01-15T10:37:36.258Z,5.70
2019-01-15T10:42:38.309Z,5.73
2019-01-15T10:47:40.350Z,5.70
2019-01-15T10:52:42.311Z,6.90
2019-01-15T10:57:44.364Z,5.80
2019-01-15T11:02:46.426Z,6.70
2019-01-15T11:07:48.656Z,6.67
2019-01-15T11:12:50.585Z,7.67
2019-01-15T11:17:52.607Z,6.60
2019-01-15T11:22:55.440Z,7.40
2019-01-15T11:27:57.366Z,7.47
2019-01-15T11:32:59.406Z,7.87
2019-01-15T11:38:01.421Z,7.70
2019-01-15T11:43:04.394Z,7.17
2019-01-15T11:48:06.805Z,8.03
2019-01-15T11:53:08.925Z,8.27
2019-01-15T11:58:10.848Z,8.37
2019-01-15T12:03:22.938Z,6.90
2019-01-15T12:08:36.171Z,7.73
2019-01-15T12:13:55.890Z,7.60
2019-01-15T12:19:35.763Z,8.03
2019-01-15T12:24:54.601Z,6.67
2019-01-15T12:30:18.540Z,7.97
2019-01-15T12:35:38.879Z,6.83
2019-01-15T12:40:57.091Z,6.43
2019-01-15T12:46:17.342Z,6.57
2019-01-15T12:51:39.296Z,6.90
2019-01-15T13:02:44.564Z,5.90
2019-01-15T13:08:00.616Z,6.00
2019-01-15T13:13:19.005Z,5.60
2019-01-15T13:18:39.063Z,5.37
2019-01-15T13:23:59.787Z,5.87
2019-01-15T13:29:16.776Z,6.10
2019-01-15T13:34:36.308Z,4.80
2019-01-15T13:40:01.258Z,5.03
2019-01-15T13:45:30.778Z,5.07
2019-01-15T13:50:48.286Z,4.90
2019-01-15T13:56:10.036Z,4.87
2019-01-15T14:01:43.642Z,4.70
2019-01-15T14:07:09.429Z,4.50
2019-01-15T14:12:34.241Z,4.63
2019-01-15T14:23:34.991Z,4.37
2019-01-15T14:28:56.600Z,5.00
2019-01-15T14:34:18.957Z,4.53
2019-01-15T14:39:52.594Z,4.70
2019-01-15T14:45:12.909Z,4.83
2019-01-15T14:50:33.508Z,5.03
2019-01-15T14:56:06.982Z,5.13
2019-01-15T15:01:37.399Z,5.40
2019-01-15T15:07:04.885Z,5.40
2019-01-15T15:12:26.554Z,5.80
2019-01-15T15:17:47.649Z,5.77
2019-01-15T15:23:00.168Z,5.93
2019-01-15T15:28:15.525Z,6.70
2019-01-15T15:33:31.457Z,6.70
2019-01-15T15:38:52.511Z,6.30
2019-01-15T15:44:13.502Z,6.63
2019-01-15T15:55:13.420Z,5.90
2019-01-15T16:00:38.080Z,5.73
2019-01-15T16:06:03.076Z,6.43
2019-01-15T16:11:27.180Z,6.60
2019-01-15T16:16:36.131Z,6.10
2019-01-15T16:21:53.830Z,6.73
2019-01-15T16:27:13.845Z,7.30
2019-01-15T16:32:38.001Z,7.13
2019-01-15T16:37:59.875Z,7.67
2019-01-15T16:43:35.176Z,7.80
2019-01-15T16:49:02.442Z,7.73
2019-01-15T16:54:23.155Z,7.27
2019-01-15T16:59:45.519Z,6.90
2019-01-15T17:05:13.820Z,8.30
2019-01-15T17:10:27.395Z,8.43
2019-01-15T17:16:01.352Z,7.70
2019-01-15T17:21:15.763Z,8.53
2019-01-15T17:26:37.359Z,8.17
2019-01-15T17:32:10.812Z,7.43
2019-01-15T17:37:27.114Z,7.50
2019-01-15T17:42:47.672Z,8.17
2019-01-15T17:48:18.412Z,6.87
2019-01-15T17:53:52.130Z,7.10
2019-01-15T17:59:03.942Z,7.03
2019-01-15T18:04:26.032Z,7.53
2019-01-15T18:09:47.596Z,7.83
2019-01-15T18:15:12.090Z,8.73
2019-01-15T18:20:27.272Z,8.97
2019-01-15T18:25:59.287Z,8.63
2019-01-15T18:31:33.000Z,9.23
2019-01-15T18:36:54.633Z,8.13
2019-01-15T18:42:16.534Z,8.20
2019-01-15T18:47:37.075Z,7.93
2019-01-15T18:52:46.041Z,8.30
2019-01-15T18:58:06.450Z,8.33
2019-01-15T19:03:26.886Z,7.70
2019-01-15T19:08:43.572Z,7.47
2019-01-15T19:14:03.987Z,7.47
2019-01-15T19:19:14.128Z,7.37
2019-01-15T19:24:35.749Z,8.37
2019-01-15T19:30:05.022Z,6.70
2019-01-15T19:41:43.411Z,7.27
2019-01-15T19:46:56.268Z,6.97
2019-01-15T19:52:06.478Z,7.63
2019-01-15T19:57:33.616Z,6.70
2019-01-15T20:02:45.260Z,6.60
2019-01-15T20:08:12.691Z,6.60
2019-01-15T20:13:34.793Z,6.83
2019-01-15T20:18:55.148Z,6.07
2019-01-15T20:24:19.547Z,6.13
2019-01-15T20:29:46.980Z,5.73
2019-01-15T20:34:59.383Z,6.57
2019-01-15T20:40:12.737Z,6.37
2019-01-15T20:45:49.709Z,5.80
2019-01-15T20:51:09.987Z,6.37
2019-01-15T20:56:26.682Z,6.00
2019-01-15T21:01:54.018Z,5.70
2019-01-15T21:07:14.216Z,6.67
2019-01-15T21:12:53.768Z,5.73
2019-01-15T21:18:24.379Z,5.90
2019-01-15T21:23:44.653Z,5.33
2019-01-15T21:29:04.808Z,6.90
2019-01-15T21:34:24.713Z,5.83
2019-01-15T21:39:55.150Z,6.40
2019-01-15T21:45:15.327Z,7.10
2019-01-15T21:50:37.045Z,6.20
2019-01-15T21:55:52.836Z,6.50
2019-01-15T22:01:13.112Z,6.27
2019-01-15T22:06:41.440Z,6.47
2019-01-15T22:12:13.723Z,6.87
2019-01-15T22:17:47.346Z,7.03
2019-01-15T22:23:13.824Z,7.67
2019-01-15T22:28:24.108Z,7.67
2019-01-15T22:33:48.741Z,7.00
2019-01-15T22:39:09.041Z,6.80
2019-01-15T22:44:21.724Z,6.80
2019-01-15T22:49:46.427Z,6.90
2019-01-15T22:55:09.599Z,6.80
2019-01-15T23:00:46.025Z,7.37
2019-01-15T23:06:01.090Z,6.90
2019-01-15T23:11:26.794Z,7.53
2019-01-15T23:16:39.330Z,7.73
2019-01-15T23:22:06.780Z,7.23
2019-01-15T23:27:31.285Z,7.33
2019-01-15T23:32:42.091Z,7.70
2019-01-15T23:38:06.260Z,7.07
2019-01-15T23:43:27.068Z,7.40
2019-01-15T23:48:47.060Z,7.93
2019-01-15T23:53:59.010Z,8.03
2019-01-15T23:59:20.296Z,8.10
